Williamsport, OH (43164)

5:29 AM EDT on September 02, 2014 (GMT -0400)
Pickaway-Fairfield Line | Change Station
CLOSE
Current Station
Personal Weather Station
Location: Ashville, OH
Elevation: 815 ft
Nearby Weather Stations
Active Advisory: Flash Flood Watch

Elev 815 ft 39.71 °N, 82.84 °W | Updated 13 minutes ago

Clear
Clear
72.7 °F
Feels Like 71 °F
N
2.7
Wind Variable Wind from South

Today
High -- | Low -- °F
--% Chance of Precip.
Yesterday
High -- | Low -- °F
Precip. -- in
7:01 AM 8:01 PM
Waxing Crescent, 49% visible
Pressure 29.95 in
Visibility 7.0 miles
Clouds Mostly Cloudy 2100 ft
Heat Index 71 °F
Dew Point 69 °F
Humidity 89%
Rainfall 0.00 in
Snow Depth Not available.
UV 0 out of 12
Pollen 9.90 out of 12
Ozone Good
PM2.5 Moderate
Flu Activity Not available.
METAR KLCK 020915Z AUTO 19003KT 7SM BKN021 22/19 A2995 RMK AO2 LTG DSNT W T02150188

More Conditions Fewer Conditions

Pressure 29.95 in
Visibility 7.0 miles
Clouds Mostly Cloudy 2100 ft
Heat Index 71 °F
Dew Point 69 °F
Humidity 89%
Rainfall 0.00 in
Snow Depth Not available.
UV 0 out of 12
Pollen 9.90 out of 12
Ozone Good
PM2.5 Moderate
Flu Activity Not available.
METAR KLCK 020915Z AUTO 19003KT 7SM BKN021 22/19 A2995 RMK AO2 LTG DSNT W T02150188

More Conditions Fewer Conditions

10-Day Weather Forecast

Almanac

Astronomy

Sep. 02, 2014 Rise Set
Actual Time 7:01 AM EDT 8:01 PM EDT
Civil Twilight 6:34 AM EDT 8:29 PM EDT
Nautical Twilight 6:01 AM EDT 9:02 PM EDT
Astronomical Twilight 5:27 AM EDT 9:36 PM EDT
Moon 2:43 PM EDT 12:05 AM EDT
Length of Visible Light 13h 55m
Length of Day
13h 00m
Tomorrow will be 2m 30s shorter.
Waxing Crescent, 49% of the Moon is Illuminated
Today
Waxing Crescent
Sep 2
First Quarter
Sep 8
Full
Sep 15
Last Quarter
Sep 24
New

Today's Extremes

State Highs State Lows

Community

WunderPhotos

Upload Photos

1,749,587 photos uploaded!

WunderBlogs® & News

Nearby

Air Quality

  Air Quality AQ Index Pollutant
Yesterday Good
PM2.5
Yesterday Good
OZONE
Current Moderate
PM2.5
Current Good
OZONE
Tuesday Good
PM2.5
Tuesday Good
OZONE
Wednesday Moderate
PM2.5
Wednesday Moderate
OZONE
Thursday Moderate
OZONE
Thursday Moderate
PM2.5
Friday Moderate
OZONE
Friday Moderate
PM2.5
Saturday Good
OZONE
Saturday Good
PM2.5

Snow Depth

Station Depth Elevation
No new snow has been reported.

Earthquake Activity

City Distance Mag. Time & Date
No recent earthquake activity has been reported nearby.
Minimum magnitude displayed is 2.5.

Coastal Water Temperatures

Place Temperature
No Stations Reporting

Nearby Weather Stations